TimeCST,TemperatureF,Dew PointF,Humidity,Sea Level PressureIn,VisibilityMPH,Wind Direction,Wind SpeedMPH,Gust SpeedMPH,PrecipitationIn,Events,Conditions,WindDirDegrees,DateUTC
12:52 AM,-5.1,-9.9,80,30.37,10.0,West,3.5,-,N/A,,Overcast,280,2013-01-14 06:52:00
1:52 AM,-4.0,-8.0,83,30.37,10.0,SW,3.5,-,N/A,,Overcast,220,2013-01-14 07:52:00
2:52 AM,-2.2,-7.6,78,30.23,10.0,WSW,3.5,-,N/A,,Overcast,240,2013-01-14 08:52:00
3:52 AM,-2.9,-8.0,79,30.37,10.0,Calm,Calm,-,N/A,,Overcast,0,2013-01-14 09:52:00
4:52 AM,-6.0,-9.0,87,30.36,10.0,SSE,3.5,-,N/A,,Overcast,160,2013-01-14 10:52:00
5:52 AM,-4.0,-8.0,83,30.35,10.0,Calm,Calm,-,N/A,,Overcast,0,2013-01-14 11:52:00
6:52 AM,-4.0,-9.0,79,30.36,10.0,Calm,Calm,-,N/A,,Overcast,0,2013-01-14 12:52:00
7:52 AM,-0.9,-6.0,79,30.36,10.0,Calm,Calm,-,N/A,,Overcast,0,2013-01-14 13:52:00
8:52 AM,1.0,-4.0,79,30.36,9.0,Calm,Calm,-,N/A,,Overcast,0,2013-01-14 14:52:00
9:52 AM,3.9,-0.9,80,30.36,10.0,SW,4.6,-,N/A,,Overcast,220,2013-01-14 15:52:00
10:52 AM,7.0,-0.0,73,30.35,7.0,SW,11.5,-,0.00,Snow,Light Snow,220,2013-01-14 16:52:00
11:01 AM,7.0,-0.0,73,30.21,6.0,SW,12.7,-,0.00,Snow,Light Snow,230,2013-01-14 17:01:00
11:26 AM,6.1,-0.0,76,30.21,2.0,WSW,11.5,-,0.00,Snow,Light Snow,240,2013-01-14 17:26:00
11:44 AM,7.0,-0.0,73,30.20,3.0,SW,13.8,-,0.00,Snow,Light Snow,220,2013-01-14 17:44:00
11:52 AM,7.0,1.0,77,30.34,2.0,SW,12.7,-,0.00,Snow,Light Snow,220,2013-01-14 17:52:00
11:59 AM,8.1,1.0,73,30.20,3.0,SW,13.8,-,0.00,Snow,Light Snow,220,2013-01-14 17:59:00
12:10 PM,9.0,1.9,73,30.19,6.0,SW,10.4,-,0.00,,Haze,230,2013-01-14 18:10:00
12:52 PM,8.1,1.0,73,30.31,10.0,WSW,9.2,-,0.00,,Overcast,240,2013-01-14 18:52:00
1:52 PM,8.6,1.4,73,30.16,10.0,WSW,8.1,-,N/A,,Overcast,250,2013-01-14 19:52:00
2:52 PM,9.0,1.9,73,30.28,10.0,SW,5.8,-,N/A,,Mostly Cloudy,220,2013-01-14 20:52:00
3:52 PM,10.0,1.9,70,30.28,10.0,SSW,6.9,-,N/A,,Clear,210,2013-01-14 21:52:00
4:52 PM,9.0,1.0,70,30.28,10.0,SW,5.8,-,N/A,,Clear,230,2013-01-14 22:52:00
5:52 PM,5.0,-0.0,80,30.28,10.0,SW,6.9,-,N/A,,Clear,220,2013-01-14 23:52:00
6:52 PM,-0.9,-4.0,87,30.28,10.0,Calm,Calm,-,N/A,,Mostly Cloudy,0,2013-01-15 00:52:00
7:52 PM,-2.9,-7.1,82,30.27,10.0,Calm,Calm,-,N/A,,Overcast,0,2013-01-15 01:52:00
8:52 PM,-0.0,-4.0,83,30.25,10.0,SE,6.9,-,N/A,,Overcast,130,2013-01-15 02:52:00
9:52 PM,3.2,-0.4,85,30.08,10.0,SE,6.9,-,N/A,,Overcast,130,2013-01-15 03:52:00
10:52 PM,6.1,1.0,80,30.19,10.0,SSE,5.8,-,N/A,,Overcast,160,2013-01-15 04:52:00
11:52 PM,6.1,1.0,80,30.19,10.0,SE,4.6,-,N/A,,Overcast,140,2013-01-15 05:52:00